Time;durP1;ratioP1;P1;durP2;ratioP2;P2;SDS_P1;SDS_P2;PMS_P1;PMS_P2;Temp;Humidity;BMP_temperature;BMP_pressure;BME280_temperature;BME280_humidity;BME280_pressure;Samples;Min_cycle;Max_cycle;Signal;HPM_P1;HPM_P2
2023/07/18 00:00:25;;;;;;;;;;;14.80;99.90;;;;;;7296328;19;9265;-72
2023/07/18 00:02:55;;;;;;;;;;;14.80;99.90;;;;;;7296138;19;9501;-72
2023/07/18 00:05:26;;;;;;;;;;;14.90;99.90;;;;;;7295570;19;9277;-72
2023/07/18 00:07:55;;;;;;;;;;;14.90;99.90;;;;;;7296571;19;9411;-72
2023/07/18 00:10:25;;;;;;;;;;;14.80;99.90;;;;;;7297898;19;9581;-71
2023/07/18 00:12:54;;;;;;;;;;;14.80;99.90;;;;;;7299608;19;8996;-72
2023/07/18 00:15:24;;;;;;;;;;;14.70;99.90;;;;;;7299877;19;9256;-72
2023/07/18 00:17:53;;;;;;;;;;;14.70;99.90;;;;;;7292168;19;9117;-72
2023/07/18 00:20:24;;;;;;;;;;;14.60;99.90;;;;;;7297862;19;10141;-72
2023/07/18 00:22:55;;;;;;;;;;;14.60;99.90;;;;;;7297521;19;9427;-72
2023/07/18 00:25:25;;;;;;;;;;;14.60;99.90;;;;;;7296320;19;9414;-72
2023/07/18 00:27:56;;;;;;;;;;;14.50;99.90;;;;;;7300258;19;9375;-71
2023/07/18 00:30:26;;;;;;;;;;;14.50;99.90;;;;;;7298773;19;9643;-72
2023/07/18 00:32:56;;;;;;;;;;;14.50;99.90;;;;;;7301366;19;9497;-72
2023/07/18 00:35:26;;;;;;;;;;;14.50;99.90;;;;;;7296330;19;9501;-72
2023/07/18 00:37:58;;;;;;;;;;;14.50;99.90;;;;;;7298667;19;9127;-72
2023/07/18 00:40:27;;;;;;;;;;;14.50;99.90;;;;;;7300724;19;9399;-72
2023/07/18 00:42:56;;;;;;;;;;;14.60;99.90;;;;;;7299138;19;9518;-72
2023/07/18 00:45:26;;;;;;;;;;;14.60;99.90;;;;;;7299343;19;9516;-72
2023/07/18 00:47:55;;;;;;;;;;;14.60;99.90;;;;;;7300104;19;8944;-72
2023/07/18 00:50:24;;;;;;;;;;;14.50;99.90;;;;;;7298663;19;9264;-72
2023/07/18 00:53:00;;;;;;;;;;;14.50;99.90;;;;;;7299412;19;9364;-72
2023/07/18 00:55:32;;;;;;;;;;;14.60;99.90;;;;;;7297958;19;9284;-72
2023/07/18 00:58:02;;;;;;;;;;;14.60;99.90;;;;;;7299125;19;9416;-72
2023/07/18 01:00:31;;;;;;;;;;;14.60;99.90;;;;;;7298109;19;9386;-72
2023/07/18 01:03:02;;;;;;;;;;;14.60;99.90;;;;;;7301969;19;10755;-72
2023/07/18 01:05:33;;;;;;;;;;;14.60;99.90;;;;;;7299510;19;12268;-72
2023/07/18 01:08:05;;;;;;;;;;;14.50;99.90;;;;;;7293965;19;9493;-72
2023/07/18 01:10:34;;;;;;;;;;;14.50;99.90;;;;;;7298236;19;9599;-72
2023/07/18 01:13:04;;;;;;;;;;;14.40;99.90;;;;;;7298082;19;9351;-72
2023/07/18 01:15:34;;;;;;;;;;;14.40;99.90;;;;;;7298368;19;9306;-72
2023/07/18 01:18:08;;;;;;;;;;;14.30;99.90;;;;;;7298359;19;9684;-72
2023/07/18 01:20:38;;;;;;;;;;;14.20;99.90;;;;;;7298190;19;9264;-72
2023/07/18 01:23:09;;;;;;;;;;;14.20;99.90;;;;;;7298631;19;9466;-72
2023/07/18 01:25:39;;;;;;;;;;;14.10;99.90;;;;;;7294392;19;9343;-72
2023/07/18 01:28:10;;;;;;;;;;;14.20;99.90;;;;;;7294421;19;9324;-72
2023/07/18 01:30:40;;;;;;;;;;;14.10;99.90;;;;;;7293400;19;9459;-72
2023/07/18 01:33:09;;;;;;;;;;;14.00;99.90;;;;;;7295776;19;10745;-72
2023/07/18 01:35:38;;;;;;;;;;;14.00;99.90;;;;;;7293644;19;9415;-72
2023/07/18 01:38:10;;;;;;;;;;;13.90;99.90;;;;;;7294251;19;9423;-72
2023/07/18 01:40:39;;;;;;;;;;;13.90;99.90;;;;;;7295497;19;9794;-72
2023/07/18 01:43:08;;;;;;;;;;;13.90;99.90;;;;;;7296964;19;9244;-72
2023/07/18 01:45:37;;;;;;;;;;;13.80;99.90;;;;;;7298368;19;9506;-72
2023/07/18 01:48:06;;;;;;;;;;;13.80;99.90;;;;;;7297751;19;9244;-72
2023/07/18 01:50:38;;;;;;;;;;;13.80;99.90;;;;;;7292798;19;9252;-72
2023/07/18 01:53:10;;;;;;;;;;;13.70;99.90;;;;;;7298152;19;9732;-72
2023/07/18 01:55:40;;;;;;;;;;;13.70;99.90;;;;;;7294423;19;10976;-72
2023/07/18 01:58:09;;;;;;;;;;;13.70;99.90;;;;;;7296305;19;10663;-72
2023/07/18 02:00:38;;;;;;;;;;;13.70;99.90;;;;;;7296331;19;10585;-72
2023/07/18 02:03:08;;;;;;;;;;;13.70;99.90;;;;;;7297552;19;9292;-72
2023/07/18 02:05:37;;;;;;;;;;;13.70;99.90;;;;;;7290756;19;9614;-72
2023/07/18 02:08:09;;;;;;;;;;;13.60;99.90;;;;;;7293670;19;9244;-72
2023/07/18 02:10:38;;;;;;;;;;;13.60;99.90;;;;;;7295474;19;9229;-72
2023/07/18 02:13:07;;;;;;;;;;;13.50;99.90;;;;;;7294183;19;9600;-72
2023/07/18 02:15:36;;;;;;;;;;;13.50;99.90;;;;;;7296913;19;11265;-72
2023/07/18 02:18:05;;;;;;;;;;;13.50;99.90;;;;;;7295671;19;9019;-72
2023/07/18 02:20:34;;;;;;;;;;;13.50;99.90;;;;;;7299381;19;9276;-72
2023/07/18 02:23:03;;;;;;;;;;;13.50;99.90;;;;;;7296125;19;9469;-72
2023/07/18 02:25:34;;;;;;;;;;;13.50;99.90;;;;;;7294148;19;9513;-72
2023/07/18 02:28:03;;;;;;;;;;;13.50;99.90;;;;;;7295483;19;9851;-72
2023/07/18 02:30:32;;;;;;;;;;;13.50;99.90;;;;;;7296125;19;9704;-72
2023/07/18 02:33:02;;;;;;;;;;;13.60;99.90;;;;;;7296283;19;9232;-72
2023/07/18 02:35:31;;;;;;;;;;;13.50;99.90;;;;;;7303100;19;9257;-72
2023/07/18 02:38:00;;;;;;;;;;;13.50;99.90;;;;;;7295049;19;9748;-72
2023/07/18 02:40:29;;;;;;;;;;;13.50;99.90;;;;;;7302782;19;9711;-72
2023/07/18 02:43:00;;;;;;;;;;;13.40;99.90;;;;;;7301061;19;9865;-72
2023/07/18 02:45:29;;;;;;;;;;;13.50;99.90;;;;;;7299958;19;9253;-72
2023/07/18 02:47:58;;;;;;;;;;;13.40;99.90;;;;;;7302465;19;10341;-72
2023/07/18 02:50:27;;;;;;;;;;;13.50;99.90;;;;;;7298584;19;9643;-72
2023/07/18 02:52:58;;;;;;;;;;;13.50;99.90;;;;;;7290436;19;9433;-72
2023/07/18 02:55:27;;;;;;;;;;;13.50;99.90;;;;;;7293544;19;9610;-72
2023/07/18 02:57:56;;;;;;;;;;;13.50;99.90;;;;;;7287493;19;9251;-72
2023/07/18 03:00:29;;;;;;;;;;;13.50;99.90;;;;;;7297737;19;10362;-72
2023/07/18 03:02:58;;;;;;;;;;;13.60;99.90;;;;;;7301581;19;10582;-72
2023/07/18 03:05:29;;;;;;;;;;;13.50;99.90;;;;;;7302067;19;9236;-72
2023/07/18 03:07:58;;;;;;;;;;;13.50;99.90;;;;;;7303092;19;9420;-72
2023/07/18 03:10:28;;;;;;;;;;;13.50;99.90;;;;;;7301764;19;9650;-72
2023/07/18 03:12:57;;;;;;;;;;;13.50;99.90;;;;;;7300659;19;9573;-72
2023/07/18 03:15:28;;;;;;;;;;;13.50;99.90;;;;;;7300857;19;9524;-72
2023/07/18 03:17:57;;;;;;;;;;;13.50;99.90;;;;;;7300476;19;9795;-72
2023/07/18 03:20:26;;;;;;;;;;;13.50;99.90;;;;;;7301363;19;9628;-72
2023/07/18 03:22:55;;;;;;;;;;;13.50;99.90;;;;;;7302481;19;9034;-71
2023/07/18 03:25:25;;;;;;;;;;;13.50;99.90;;;;;;7299770;19;8944;-72
2023/07/18 03:27:54;;;;;;;;;;;13.50;99.90;;;;;;7299860;19;9019;-72
2023/07/18 03:30:23;;;;;;;;;;;13.50;99.90;;;;;;7300260;19;9301;-72
2023/07/18 03:32:56;;;;;;;;;;;13.50;99.90;;;;;;7300544;19;9306;-72
2023/07/18 03:35:25;;;;;;;;;;;13.40;99.90;;;;;;7303620;19;9001;-72
2023/07/18 03:37:54;;;;;;;;;;;13.40;99.90;;;;;;7298087;19;10928;-72
2023/07/18 03:40:23;;;;;;;;;;;13.40;99.90;;;;;;7302019;19;9395;-72
2023/07/18 03:42:52;;;;;;;;;;;13.40;99.90;;;;;;7298962;19;9533;-72
2023/07/18 03:45:21;;;;;;;;;;;13.40;99.90;;;;;;7300732;19;9193;-72
2023/07/18 03:47:50;;;;;;;;;;;13.40;99.90;;;;;;7301422;19;9075;-72
2023/07/18 03:50:22;;;;;;;;;;;13.30;99.90;;;;;;7297398;19;9227;-72
2023/07/18 03:52:51;;;;;;;;;;;13.40;99.90;;;;;;7298233;19;9565;-72
2023/07/18 03:55:20;;;;;;;;;;;13.40;99.90;;;;;;7300119;19;9491;-72
2023/07/18 03:57:49;;;;;;;;;;;13.40;99.90;;;;;;7298048;19;9574;-72
2023/07/18 04:00:21;;;;;;;;;;;13.40;99.90;;;;;;7301614;19;9397;-72
2023/07/18 04:02:51;;;;;;;;;;;13.40;99.90;;;;;;7305085;19;9886;-72
2023/07/18 04:05:23;;;;;;;;;;;13.30;99.90;;;;;;7297753;19;9260;-72
2023/07/18 04:07:53;;;;;;;;;;;13.40;99.90;;;;;;7299759;19;9365;-72
2023/07/18 04:10:22;;;;;;;;;;;13.40;99.90;;;;;;7299798;19;9441;-72
2023/07/18 04:12:51;;;;;;;;;;;13.40;99.90;;;;;;7302020;19;9122;-72
2023/07/18 04:15:20;;;;;;;;;;;13.40;99.90;;;;;;7300532;19;9494;-72
2023/07/18 04:17:49;;;;;;;;;;;13.40;99.90;;;;;;7296597;19;10611;-72
2023/07/18 04:20:19;;;;;;;;;;;13.40;99.90;;;;;;7300620;19;9242;-72
2023/07/18 04:22:51;;;;;;;;;;;13.40;99.90;;;;;;7298644;19;9559;-72
2023/07/18 04:25:20;;;;;;;;;;;13.40;99.90;;;;;;7298292;19;9322;-72
2023/07/18 04:27:49;;;;;;;;;;;13.40;99.90;;;;;;7296888;19;9253;-72
2023/07/18 04:30:18;;;;;;;;;;;13.40;99.90;;;;;;7297835;19;10319;-72
2023/07/18 04:32:48;;;;;;;;;;;13.40;99.90;;;;;;7297895;19;11495;-72
2023/07/18 04:35:17;;;;;;;;;;;13.50;99.90;;;;;;7299732;19;9412;-72
2023/07/18 04:37:46;;;;;;;;;;;13.50;99.90;;;;;;7298232;19;9932;-72
2023/07/18 04:40:18;;;;;;;;;;;13.50;99.90;;;;;;7299511;19;9594;-72
2023/07/18 04:42:47;;;;;;;;;;;13.50;99.90;;;;;;7298713;19;10193;-72
2023/07/18 04:45:16;;;;;;;;;;;13.50;99.90;;;;;;7300947;19;10182;-72
2023/07/18 04:47:45;;;;;;;;;;;13.60;99.90;;;;;;7298836;19;9618;-72
2023/07/18 04:50:14;;;;;;;;;;;13.60;99.90;;;;;;7299214;19;9398;-72
2023/07/18 04:52:44;;;;;;;;;;;13.60;99.90;;;;;;7297978;19;9706;-72
2023/07/18 04:55:13;;;;;;;;;;;13.70;99.90;;;;;;7297848;19;9465;-72
2023/07/18 04:57:44;;;;;;;;;;;13.70;99.90;;;;;;7299927;19;9508;-72
2023/07/18 05:00:15;;;;;;;;;;;13.80;99.90;;;;;;7292004;19;9402;-72
2023/07/18 05:02:44;;;;;;;;;;;13.80;99.90;;;;;;7300112;19;9583;-72
2023/07/18 05:05:13;;;;;;;;;;;13.80;99.90;;;;;;7295977;19;9584;-72
2023/07/18 05:07:44;;;;;;;;;;;13.80;99.90;;;;;;7294634;19;9456;-72
2023/07/18 05:10:14;;;;;;;;;;;13.80;99.90;;;;;;7295876;19;9282;-72
2023/07/18 05:12:46;;;;;;;;;;;13.80;99.90;;;;;;7297881;19;9669;-72
2023/07/18 05:15:15;;;;;;;;;;;13.90;99.90;;;;;;7301187;19;9533;-72
2023/07/18 05:17:44;;;;;;;;;;;14.00;99.90;;;;;;7295675;19;9757;-72
2023/07/18 05:20:14;;;;;;;;;;;14.00;99.90;;;;;;7300646;19;9348;-72
2023/07/18 05:22:45;;;;;;;;;;;14.00;99.90;;;;;;7294759;19;9638;-72
2023/07/18 05:25:16;;;;;;;;;;;14.00;99.90;;;;;;7293847;19;9455;-72
2023/07/18 05:27:48;;;;;;;;;;;14.00;99.90;;;;;;7296423;19;10205;-72
2023/07/18 05:30:20;;;;;;;;;;;14.10;99.90;;;;;;7295794;19;9468;-72
2023/07/18 05:32:55;;;;;;;;;;;14.20;99.90;;;;;;7298673;19;9921;-77
2023/07/18 05:35:24;;;;;;;;;;;14.20;99.90;;;;;;7296539;19;9316;-74
2023/07/18 05:37:53;;;;;;;;;;;14.20;99.90;;;;;;7294336;19;9680;-77
2023/07/18 05:40:23;;;;;;;;;;;14.30;99.90;;;;;;7297175;19;10349;-77
2023/07/18 05:42:55;;;;;;;;;;;14.40;99.90;;;;;;7298775;19;9735;-80
2023/07/18 05:45:24;;;;;;;;;;;14.40;99.90;;;;;;7295194;19;9292;-72
2023/07/18 05:47:53;;;;;;;;;;;14.40;99.90;;;;;;7288043;19;9998;-72
2023/07/18 05:50:22;;;;;;;;;;;14.50;99.90;;;;;;7277783;19;9525;-73
2023/07/18 05:52:51;;;;;;;;;;;14.60;99.90;;;;;;7278268;19;9558;-72
2023/07/18 05:55:20;;;;;;;;;;;14.70;99.90;;;;;;7286573;19;9600;-72
2023/07/18 05:57:49;;;;;;;;;;;14.90;99.90;;;;;;7271315;19;9813;-72
2023/07/18 06:00:22;;;;;;;;;;;15.10;99.90;;;;;;7212045;19;9613;-73
2023/07/18 06:02:51;;;;;;;;;;;15.20;99.90;;;;;;7294195;19;10885;-73
2023/07/18 06:05:20;;;;;;;;;;;15.30;99.90;;;;;;7296443;19;9285;-73
2023/07/18 06:07:49;;;;;;;;;;;15.40;99.90;;;;;;7292935;19;9567;-74
2023/07/18 06:10:18;;;;;;;;;;;15.50;99.90;;;;;;7290741;19;10856;-73
2023/07/18 06:12:47;;;;;;;;;;;15.70;99.90;;;;;;7294830;19;9253;-74
2023/07/18 06:15:18;;;;;;;;;;;15.90;99.90;;;;;;7304508;19;9692;-73
2023/07/18 06:17:49;;;;;;;;;;;16.00;99.90;;;;;;7299178;19;11226;-73
2023/07/18 06:20:18;;;;;;;;;;;16.10;99.90;;;;;;7292658;19;9265;-72
2023/07/18 06:22:47;;;;;;;;;;;16.40;99.90;;;;;;7284635;19;13030;-71
2023/07/18 06:25:17;;;;;;;;;;;16.40;99.90;;;;;;7271040;19;9244;-73
2023/07/18 06:27:46;;;;;;;;;;;16.70;99.90;;;;;;7286255;19;9775;-73
2023/07/18 06:30:15;;;;;;;;;;;16.60;99.90;;;;;;7293185;19;10158;-73
2023/07/18 06:32:44;;;;;;;;;;;16.60;99.90;;;;;;7296599;19;9496;-74
2023/07/18 06:35:16;;;;;;;;;;;16.60;99.90;;;;;;7300749;19;9191;-74
2023/07/18 06:37:45;;;;;;;;;;;16.50;99.90;;;;;;7301779;19;9270;-74
2023/07/18 06:40:15;;;;;;;;;;;16.50;99.90;;;;;;7302525;19;10383;-73
2023/07/18 06:42:45;;;;;;;;;;;16.40;99.90;;;;;;7302274;19;9269;-74
2023/07/18 06:45:15;;;;;;;;;;;16.40;99.90;;;;;;7304581;19;9161;-73
2023/07/18 06:47:44;;;;;;;;;;;16.60;99.90;;;;;;7302548;19;9229;-74
2023/07/18 06:50:16;;;;;;;;;;;16.90;99.90;;;;;;7301290;19;9458;-73
2023/07/18 06:52:45;;;;;;;;;;;17.30;99.90;;;;;;7304367;19;9548;-74
2023/07/18 06:55:14;;;;;;;;;;;17.70;99.90;;;;;;7302610;19;9305;-73
2023/07/18 06:57:45;;;;;;;;;;;17.90;99.90;;;;;;7303172;19;11028;-74
2023/07/18 07:00:16;;;;;;;;;;;18.00;99.90;;;;;;7304544;19;9477;-74
2023/07/18 07:02:45;;;;;;;;;;;18.10;99.90;;;;;;7309701;19;9233;-73
2023/07/18 07:05:17;;;;;;;;;;;18.00;99.90;;;;;;7301291;19;9184;-73
2023/07/18 07:07:47;;;;;;;;;;;17.90;99.90;;;;;;7299002;19;11454;-74
2023/07/18 07:10:16;;;;;;;;;;;18.10;99.90;;;;;;7303380;19;9241;-74
2023/07/18 07:12:46;;;;;;;;;;;18.50;99.90;;;;;;7300960;19;9722;-74
2023/07/18 07:15:15;;;;;;;;;;;18.90;99.90;;;;;;7305224;19;9766;-74
2023/07/18 07:17:44;;;;;;;;;;;19.00;99.90;;;;;;7299135;19;9490;-74
2023/07/18 07:20:19;;;;;;;;;;;19.40;99.90;;;;;;7302748;19;9248;-74
2023/07/18 07:22:48;;;;;;;;;;;19.70;99.90;;;;;;7301779;19;9532;-74
2023/07/18 07:25:17;;;;;;;;;;;19.60;99.90;;;;;;7295805;19;9272;-74
2023/07/18 07:27:46;;;;;;;;;;;19.70;99.90;;;;;;7302250;19;9237;-74
2023/07/18 07:30:17;;;;;;;;;;;19.70;99.90;;;;;;7299645;19;9557;-74
2023/07/18 07:32:47;;;;;;;;;;;19.60;99.90;;;;;;7303446;19;10620;-74
2023/07/18 07:35:19;;;;;;;;;;;19.60;99.90;;;;;;7299869;19;9633;-75
2023/07/18 07:37:50;;;;;;;;;;;19.70;99.90;;;;;;7306873;19;11320;-74
2023/07/18 07:40:19;;;;;;;;;;;19.90;99.90;;;;;;7298846;19;9966;-74
2023/07/18 07:42:49;;;;;;;;;;;20.40;99.90;;;;;;7297988;19;9636;-74
2023/07/18 07:45:20;;;;;;;;;;;20.60;99.90;;;;;;7299443;19;11237;-74
2023/07/18 07:47:51;;;;;;;;;;;20.50;99.90;;;;;;7301858;19;9679;-74
2023/07/18 07:50:22;;;;;;;;;;;20.60;99.90;;;;;;7298942;19;9269;-74
2023/07/18 07:52:51;;;;;;;;;;;20.60;99.90;;;;;;7299126;19;9371;-74
2023/07/18 07:55:20;;;;;;;;;;;21.00;99.90;;;;;;7301519;19;9733;-74
2023/07/18 07:57:49;;;;;;;;;;;21.30;99.90;;;;;;7300924;19;9008;-74
2023/07/18 08:00:19;;;;;;;;;;;21.50;99.90;;;;;;7303438;19;9468;-74
2023/07/18 08:02:48;;;;;;;;;;;21.70;99.90;;;;;;7307905;19;9609;-74
2023/07/18 08:05:17;;;;;;;;;;;21.30;99.90;;;;;;7310389;19;9457;-74
2023/07/18 08:07:49;;;;;;;;;;;21.20;99.90;;;;;;7297070;19;9538;-74
2023/07/18 08:10:18;;;;;;;;;;;21.50;99.90;;;;;;7299091;19;9542;-74
2023/07/18 08:12:48;;;;;;;;;;;21.80;99.90;;;;;;7298129;19;9363;-74
2023/07/18 08:15:17;;;;;;;;;;;22.00;99.90;;;;;;7299690;19;9168;-74
2023/07/18 08:17:46;;;;;;;;;;;22.20;99.90;;;;;;7299612;19;9455;-74
2023/07/18 08:20:15;;;;;;;;;;;22.60;99.90;;;;;;7299164;19;9588;-74
2023/07/18 08:22:46;;;;;;;;;;;23.00;99.50;;;;;;7299763;19;9617;-74
2023/07/18 08:25:17;;;;;;;;;;;23.30;98.40;;;;;;7298696;19;8992;-74
2023/07/18 08:27:46;;;;;;;;;;;23.30;97.60;;;;;;7298768;19;9395;-74
2023/07/18 08:30:15;;;;;;;;;;;23.50;96.50;;;;;;7297334;19;10427;-74
2023/07/18 08:32:44;;;;;;;;;;;23.60;95.20;;;;;;7299918;19;9810;-75
2023/07/18 08:35:14;;;;;;;;;;;23.60;95.10;;;;;;7300450;19;9284;-74
2023/07/18 08:37:43;;;;;;;;;;;23.60;94.70;;;;;;7297400;19;9717;-74
2023/07/18 08:40:17;;;;;;;;;;;23.70;94.20;;;;;;7298676;19;9439;-74
2023/07/18 08:42:46;;;;;;;;;;;23.60;92.50;;;;;;7300503;19;9177;-74
2023/07/18 08:45:18;;;;;;;;;;;23.40;94.20;;;;;;7301353;19;11522;-74
2023/07/18 08:47:51;;;;;;;;;;;23.30;94.30;;;;;;7299246;19;9814;-74
2023/07/18 08:50:21;;;;;;;;;;;23.20;94.10;;;;;;7298478;19;9561;-74
2023/07/18 08:52:50;;;;;;;;;;;23.30;94.60;;;;;;7316386;19;9205;-74
2023/07/18 08:55:22;;;;;;;;;;;23.40;94.60;;;;;;7300817;19;9382;-74
2023/07/18 08:57:54;;;;;;;;;;;23.30;93.10;;;;;;7294285;19;9249;-74
2023/07/18 09:00:23;;;;;;;;;;;23.20;94.30;;;;;;7299192;19;9726;-74
2023/07/18 09:02:52;;;;;;;;;;;23.10;95.20;;;;;;7306800;19;9445;-74
2023/07/18 09:05:31;;;;;;;;;;;23.10;95.20;;;;;;7296692;19;9239;-73
2023/07/18 09:08:02;;;;;;;;;;;23.00;95.50;;;;;;7297741;19;9363;-74
2023/07/18 09:10:34;;;;;;;;;;;22.90;95.10;;;;;;7300819;19;9521;-74
2023/07/18 09:13:05;;;;;;;;;;;22.80;94.90;;;;;;7297138;19;9382;-74
2023/07/18 09:15:37;;;;;;;;;;;22.80;94.00;;;;;;7299295;19;9376;-74
2023/07/18 09:18:08;;;;;;;;;;;22.90;94.90;;;;;;7297344;19;9340;-74
2023/07/18 09:20:38;;;;;;;;;;;22.90;94.70;;;;;;7299109;19;9487;-74
2023/07/18 09:23:07;;;;;;;;;;;23.00;94.80;;;;;;7297384;19;9548;-74
2023/07/18 09:25:42;;;;;;;;;;;22.90;94.70;;;;;;7296074;19;9297;-74
2023/07/18 09:28:14;;;;;;;;;;;22.90;93.60;;;;;;7297809;19;9115;-74
2023/07/18 09:30:44;;;;;;;;;;;23.00;94.70;;;;;;7282695;19;9277;-74
2023/07/18 09:33:13;;;;;;;;;;;23.10;93.80;;;;;;7277067;19;9276;-74
2023/07/18 09:35:43;;;;;;;;;;;23.30;94.20;;;;;;7282862;19;9911;-74
2023/07/18 09:38:13;;;;;;;;;;;23.30;90.30;;;;;;7273073;19;9639;-74
2023/07/18 09:40:45;;;;;;;;;;;23.10;91.70;;;;;;7280833;19;9191;-74
2023/07/18 09:43:15;;;;;;;;;;;23.20;93.20;;;;;;7278506;19;9593;-74
2023/07/18 09:45:46;;;;;;;;;;;23.40;93.10;;;;;;7275909;19;9480;-74
2023/07/18 09:48:17;;;;;;;;;;;23.50;92.40;;;;;;7276133;19;9500;-74
2023/07/18 09:50:50;;;;;;;;;;;23.70;92.80;;;;;;7274805;19;10173;-74
2023/07/18 09:53:23;;;;;;;;;;;23.50;92.60;;;;;;7274788;19;11097;-74
2023/07/18 09:55:56;;;;;;;;;;;23.60;92.50;;;;;;7277559;19;9382;-74
2023/07/18 09:58:26;;;;;;;;;;;23.50;91.40;;;;;;7278980;19;9490;-74
2023/07/18 10:00:57;;;;;;;;;;;23.20;89.60;;;;;;7288018;19;9466;-74
2023/07/18 10:03:28;;;;;;;;;;;23.20;92.40;;;;;;7298347;19;9591;-74
2023/07/18 10:05:57;;;;;;;;;;;23.20;92.70;;;;;;7295117;19;9496;-74
2023/07/18 10:08:26;;;;;;;;;;;23.20;92.90;;;;;;7295078;19;11625;-74
2023/07/18 10:11:07;;;;;;;;;;;23.20;92.60;;;;;;7297756;19;10946;-74
2023/07/18 10:13:44;;;;;;;;;;;23.30;92.30;;;;;;7288706;19;9665;-71
2023/07/18 10:16:21;;;;;;;;;;;23.40;91.70;;;;;;7293084;19;9457;-71
2023/07/18 10:18:51;;;;;;;;;;;23.60;90.70;;;;;;7295679;19;9503;-70
2023/07/18 10:21:31;;;;;;;;;;;23.50;90.50;;;;;;7296901;19;9234;-71
2023/07/18 10:24:21;;;;;;;;;;;23.40;90.60;;;;;;7293729;19;9461;-70
2023/07/18 10:26:56;;;;;;;;;;;23.40;90.50;;;;;;7296331;19;9390;-71
2023/07/18 10:29:26;;;;;;;;;;;23.20;90.80;;;;;;7294108;19;9499;-72
2023/07/18 10:31:55;;;;;;;;;;;23.00;91.30;;;;;;7295748;19;9311;-71
2023/07/18 10:34:24;;;;;;;;;;;22.90;91.30;;;;;;7294231;19;10723;-71
2023/07/18 10:36:59;;;;;;;;;;;22.70;92.20;;;;;;7297068;19;9810;-71
2023/07/18 10:39:51;;;;;;;;;;;22.60;93.70;;;;;;7291753;19;9470;-71
2023/07/18 10:42:24;;;;;;;;;;;22.40;95.70;;;;;;7291790;19;11604;-70
2023/07/18 10:44:58;;;;;;;;;;;22.30;95.30;;;;;;7292228;19;10784;-71
2023/07/18 10:47:28;;;;;;;;;;;21.90;99.40;;;;;;7293700;19;10464;-71
2023/07/18 10:49:58;;;;;;;;;;;21.70;99.90;;;;;;7295139;19;9384;-70
2023/07/18 10:52:28;;;;;;;;;;;21.70;99.80;;;;;;7300357;19;9301;-71
2023/07/18 10:54:59;;;;;;;;;;;21.60;99.90;;;;;;7290927;19;9573;-71
2023/07/18 10:57:33;;;;;;;;;;;21.50;99.90;;;;;;7292317;19;9605;-71
2023/07/18 11:00:04;;;;;;;;;;;21.50;99.90;;;;;;7297874;19;9114;-70
2023/07/18 11:02:38;;;;;;;;;;;21.20;99.90;;;;;;7312306;19;9605;-70
2023/07/18 11:05:11;;;;;;;;;;;21.10;99.90;;;;;;7297316;19;10465;-70
2023/07/18 11:07:42;;;;;;;;;;;21.40;99.90;;;;;;7298228;19;9695;-70
2023/07/18 11:10:13;;;;;;;;;;;21.60;99.90;;;;;;7304091;19;9281;-70
2023/07/18 11:12:45;;;;;;;;;;;21.60;99.90;;;;;;7299881;19;9624;-70
2023/07/18 11:15:15;;;;;;;;;;;22.10;99.50;;;;;;7303247;19;9516;-71
2023/07/18 11:17:46;;;;;;;;;;;22.10;98.60;;;;;;7296418;19;9140;-70
2023/07/18 11:20:15;;;;;;;;;;;22.00;98.80;;;;;;7301029;19;10153;-70
2023/07/18 11:22:44;;;;;;;;;;;22.30;97.70;;;;;;7296368;19;9541;-70
2023/07/18 11:25:14;;;;;;;;;;;22.40;98.20;;;;;;7297155;19;9235;-70
2023/07/18 11:27:52;;;;;;;;;;;22.50;96.50;;;;;;7300435;19;9493;-70
2023/07/18 11:30:25;;;;;;;;;;;22.70;95.70;;;;;;7296230;19;9485;-70
2023/07/18 11:32:55;;;;;;;;;;;22.80;95.40;;;;;;7291439;19;11695;-71
2023/07/18 11:35:26;;;;;;;;;;;23.00;93.70;;;;;;7295854;19;9272;-70
2023/07/18 11:37:56;;;;;;;;;;;22.90;93.30;;;;;;7299026;19;9292;-70
2023/07/18 11:40:28;;;;;;;;;;;22.70;93.30;;;;;;7299932;19;10666;-70
2023/07/18 11:43:00;;;;;;;;;;;22.70;93.70;;;;;;7302237;19;9391;-70
2023/07/18 11:45:30;;;;;;;;;;;22.40;93.30;;;;;;7294952;19;9256;-70
2023/07/18 11:48:02;;;;;;;;;;;22.40;94.00;;;;;;7299220;19;9472;-70
2023/07/18 11:50:32;;;;;;;;;;;22.20;92.80;;;;;;7295949;19;10142;-70
2023/07/18 11:53:05;;;;;;;;;;;21.80;94.20;;;;;;7298879;19;10028;-70
2023/07/18 11:55:34;;;;;;;;;;;21.90;95.60;;;;;;7300745;19;9272;-70
2023/07/18 11:58:09;;;;;;;;;;;21.80;96.80;;;;;;7296709;19;9681;-70
2023/07/18 12:00:39;;;;;;;;;;;21.40;95.90;;;;;;7295664;19;10402;-70
2023/07/18 12:03:08;;;;;;;;;;;21.30;96.30;;;;;;7305428;19;9289;-70
2023/07/18 12:05:37;;;;;;;;;;;21.30;97.70;;;;;;7298904;19;9266;-70
2023/07/18 12:08:07;;;;;;;;;;;21.10;98.10;;;;;;7298853;19;9382;-70
2023/07/18 12:10:36;;;;;;;;;;;21.00;98.80;;;;;;7298435;19;9379;-71
2023/07/18 12:13:07;;;;;;;;;;;20.70;98.70;;;;;;7299104;19;10138;-70
2023/07/18 12:15:37;;;;;;;;;;;20.70;98.80;;;;;;7298975;19;9648;-70
2023/07/18 12:18:06;;;;;;;;;;;20.90;99.60;;;;;;7300053;19;10637;-70
2023/07/18 12:20:36;;;;;;;;;;;20.80;98.30;;;;;;7296212;19;9560;-70
2023/07/18 12:23:05;;;;;;;;;;;20.70;99.90;;;;;;7299457;19;9620;-71
2023/07/18 12:25:34;;;;;;;;;;;20.70;99.90;;;;;;7294369;19;11181;-70
2023/07/18 12:28:05;;;;;;;;;;;20.70;99.90;;;;;;7302162;19;9661;-71
2023/07/18 12:30:36;;;;;;;;;;;20.60;99.90;;;;;;7297502;19;10720;-70
2023/07/18 12:33:06;;;;;;;;;;;20.60;99.90;;;;;;7302507;19;9123;-70
2023/07/18 12:35:35;;;;;;;;;;;20.70;99.90;;;;;;7293735;19;9277;-70
2023/07/18 12:38:04;;;;;;;;;;;20.80;99.90;;;;;;7296585;19;9425;-71
2023/07/18 12:40:33;;;;;;;;;;;20.80;99.90;;;;;;7295437;19;9388;-70
2023/07/18 12:43:02;;;;;;;;;;;20.80;99.90;;;;;;7297896;19;9490;-71
2023/07/18 12:45:31;;;;;;;;;;;21.00;99.90;;;;;;7298233;19;14396;-70
2023/07/18 12:48:03;;;;;;;;;;;20.90;99.90;;;;;;7301284;19;9332;-70
2023/07/18 12:50:32;;;;;;;;;;;21.00;99.70;;;;;;7297856;19;11776;-70
2023/07/18 12:53:02;;;;;;;;;;;21.00;99.30;;;;;;7294853;19;10945;-70
2023/07/18 12:55:31;;;;;;;;;;;21.10;99.70;;;;;;7295628;19;9288;-70
2023/07/18 12:58:00;;;;;;;;;;;21.00;98.80;;;;;;7297813;19;9285;-70
2023/07/18 13:00:29;;;;;;;;;;;21.10;99.80;;;;;;7293968;19;9138;-70
2023/07/18 13:02:58;;;;;;;;;;;20.90;98.80;;;;;;7302013;19;9272;-71
2023/07/18 13:05:29;;;;;;;;;;;20.60;99.60;;;;;;7294846;19;10352;-71
2023/07/18 13:07:58;;;;;;;;;;;20.50;99.30;;;;;;7295928;19;10327;-70
2023/07/18 13:10:27;;;;;;;;;;;20.40;99.50;;;;;;7297910;19;9807;-70
2023/07/18 13:12:57;;;;;;;;;;;20.20;99.90;;;;;;7297881;19;9140;-70
2023/07/18 13:15:26;;;;;;;;;;;20.00;99.90;;;;;;7297952;19;9592;-71
2023/07/18 13:17:55;;;;;;;;;;;20.00;99.90;;;;;;7292526;19;9367;-70
2023/07/18 13:20:26;;;;;;;;;;;20.20;99.90;;;;;;7274983;19;9493;-70
2023/07/18 13:22:58;;;;;;;;;;;20.20;99.20;;;;;;7277609;19;9357;-70
2023/07/18 13:25:27;;;;;;;;;;;20.30;99.90;;;;;;7273971;19;10893;-71
2023/07/18 13:27:56;;;;;;;;;;;20.40;99.30;;;;;;7282473;19;13302;-70
2023/07/18 13:30:25;;;;;;;;;;;20.20;98.80;;;;;;7291080;19;9528;-70
2023/07/18 13:32:54;;;;;;;;;;;20.50;99.80;;;;;;7292031;19;9294;-71
2023/07/18 13:35:23;;;;;;;;;;;20.80;99.20;;;;;;7296669;19;10738;-70
2023/07/18 13:37:52;;;;;;;;;;;20.80;97.90;;;;;;7295821;19;9175;-70
2023/07/18 13:40:24;;;;;;;;;;;20.90;98.20;;;;;;7297051;19;9447;-69
2023/07/18 13:42:53;;;;;;;;;;;20.90;97.90;;;;;;7293060;19;9580;-70
2023/07/18 13:45:22;;;;;;;;;;;21.10;97.60;;;;;;7293920;19;9612;-70
2023/07/18 13:47:51;;;;;;;;;;;20.90;96.50;;;;;;7294791;19;9544;-71
2023/07/18 13:50:20;;;;;;;;;;;20.90;98.30;;;;;;7293764;19;9304;-70
2023/07/18 13:52:51;;;;;;;;;;;20.70;97.60;;;;;;7295344;19;9468;-70
2023/07/18 13:55:20;;;;;;;;;;;20.70;98.50;;;;;;7297807;19;9252;-70
2023/07/18 13:57:52;;;;;;;;;;;20.40;98.40;;;;;;7297615;19;10113;-70
2023/07/18 14:00:21;;;;;;;;;;;20.30;99.40;;;;;;7296664;19;9523;-70
2023/07/18 14:02:50;;;;;;;;;;;20.20;99.90;;;;;;7303116;19;9986;-70
2023/07/18 14:05:20;;;;;;;;;;;20.00;99.90;;;;;;7295117;19;9482;-70
2023/07/18 14:07:49;;;;;;;;;;;19.90;99.90;;;;;;7295848;19;9536;-70
2023/07/18 14:10:18;;;;;;;;;;;20.00;99.90;;;;;;7296581;19;9253;-70
2023/07/18 14:12:47;;;;;;;;;;;19.90;99.90;;;;;;7293855;19;11117;-70
2023/07/18 14:15:19;;;;;;;;;;;19.80;99.90;;;;;;7297818;19;9514;-70
2023/07/18 14:17:49;;;;;;;;;;;19.70;99.90;;;;;;7291363;19;9237;-70
2023/07/18 14:20:19;;;;;;;;;;;19.80;99.90;;;;;;7289564;19;9412;-70
2023/07/18 14:22:53;;;;;;;;;;;19.80;99.90;;;;;;7047950;19;9496;-71
2023/07/18 14:25:23;;;;;;;;;;;19.70;99.10;;;;;;7018055;19;9719;-71
2023/07/18 14:27:53;;;;;;;;;;;19.70;99.70;;;;;;7039449;19;138507;-70
2023/07/18 14:33:13;;;;;;;;;;;19.60;99.30;;;;;;7237386;19;9633;-70
2023/07/18 14:35:43;;;;;;;;;;;19.60;99.90;;;;;;7291582;19;9455;-70
2023/07/18 14:38:12;;;;;;;;;;;19.60;99.80;;;;;;7276613;19;9371;-70
2023/07/18 14:40:42;;;;;;;;;;;19.60;99.90;;;;;;7291468;19;9700;-70
2023/07/18 14:43:12;;;;;;;;;;;19.60;99.90;;;;;;7297378;19;9313;-70
2023/07/18 14:45:41;;;;;;;;;;;19.80;99.90;;;;;;7296306;19;9158;-71
2023/07/18 14:48:13;;;;;;;;;;;20.20;99.90;;;;;;7243161;19;64994;-70